createdAt,value
2022-11-06T00:15:04.466Z,89.16
2022-11-06T00:20:07.677Z,89.52
2022-11-06T00:25:10.076Z,89.11
2022-11-06T00:30:20.683Z,89.12
2022-11-06T00:35:25.492Z,89.15
2022-11-06T00:40:27.816Z,89.26
2022-11-06T00:45:29.595Z,89.72
2022-11-06T00:50:38.272Z,90.05
2022-11-06T00:55:40.180Z,89.44
2022-11-06T01:01:03.191Z,89.72
2022-11-06T01:39:29.814Z,90.42
2022-11-06T02:40:03.326Z,90.00
2022-11-06T02:51:28.010Z,89.93
2022-11-06T03:02:12.155Z,90.29
2022-11-06T03:19:30.173Z,90.60
2022-11-06T03:25:00.176Z,90.55
2022-11-06T03:30:13.827Z,90.68
2022-11-06T03:36:12.288Z,90.80
2022-11-06T03:41:39.773Z,90.72
2022-11-06T03:46:55.301Z,90.69
2022-11-06T03:52:28.433Z,90.99
2022-11-06T04:04:10.658Z,90.99
2022-11-06T04:09:36.338Z,90.94
2022-11-06T04:14:45.349Z,90.66
2022-11-06T04:20:01.925Z,90.95
2022-11-06T04:25:48.187Z,90.98
2022-11-06T04:31:02.491Z,91.20
2022-11-06T04:36:04.669Z,91.25
2022-11-06T04:41:34.851Z,91.16
2022-11-06T04:47:50.801Z,91.26
2022-11-06T05:04:40.966Z,92.36
2022-11-06T05:11:19.938Z,92.10
2022-11-06T05:16:14.039Z,92.32
2022-11-06T05:21:37.193Z,92.54
2022-11-06T05:26:45.159Z,92.32
2022-11-06T05:32:11.543Z,92.65
2022-11-06T05:37:13.424Z,92.47
2022-11-06T05:42:17.736Z,92.11
2022-11-06T05:47:33.620Z,91.92
2022-11-06T06:04:24.080Z,91.96
2022-11-06T06:10:32.881Z,92.52
2022-11-06T06:21:59.232Z,92.68
2022-11-06T06:38:32.707Z,92.16
2022-11-06T06:43:35.295Z,92.30
2022-11-06T06:48:37.180Z,92.50
2022-11-06T06:53:41.824Z,92.98
2022-11-06T06:58:43.706Z,93.28
2022-11-06T07:03:51.826Z,93.50
2022-11-06T07:09:03.215Z,93.69
2022-11-06T07:14:09.151Z,93.74
2022-11-06T07:19:24.797Z,93.73
2022-11-06T07:24:47.573Z,94.21
2022-11-06T07:29:49.457Z,94.13
2022-11-06T07:46:27.557Z,94.45
2022-11-06T07:51:32.522Z,94.72
2022-11-06T07:56:53.564Z,93.94
2022-11-06T08:02:22.035Z,94.22
2022-11-06T08:07:27.021Z,94.27
2022-11-06T08:18:20.412Z,93.45
2022-11-06T08:23:27.676Z,93.66
2022-11-06T08:28:33.312Z,93.26
2022-11-06T08:33:51.146Z,93.04
2022-11-06T08:38:57.273Z,91.45
2022-11-06T08:44:09.437Z,91.36
2022-11-06T08:49:22.439Z,90.78
2022-11-06T08:54:44.092Z,90.28
2022-11-06T08:59:45.888Z,89.58
2022-11-06T09:04:59.459Z,89.63
2022-11-06T09:23:25.769Z,86.54
2022-11-06T09:29:25.191Z,86.08
2022-11-06T09:47:28.757Z,84.44
2022-11-06T10:35:44.956Z,82.03
2022-11-06T11:23:11.260Z,79.73
2022-11-06T11:34:01.342Z,79.44
2022-11-06T11:45:09.333Z,77.88
2022-11-06T12:30:12.855Z,74.06
2022-11-06T12:35:54.067Z,75.49
2022-11-06T13:10:40.517Z,74.00
2022-11-06T13:16:38.183Z,74.97
2022-11-06T13:22:15.011Z,75.21
2022-11-06T13:27:55.363Z,74.96
2022-11-06T13:44:26.282Z,72.92
2022-11-06T13:50:02.064Z,72.22
2022-11-06T13:55:41.742Z,72.09
2022-11-06T14:01:15.923Z,72.77
2022-11-06T14:11:58.963Z,71.16
2022-11-06T14:17:24.135Z,68.66
2022-11-06T14:22:39.046Z,68.46
2022-11-06T14:27:49.081Z,69.54
2022-11-06T14:32:52.732Z,70.92
2022-11-06T14:38:31.044Z,69.42
2022-11-06T14:43:37.053Z,70.69
2022-11-06T14:48:44.134Z,71.30
2022-11-06T14:53:54.817Z,71.88
2022-11-06T14:59:29.088Z,72.92
2022-11-06T15:04:35.003Z,73.22
2022-11-06T15:09:39.787Z,73.66
2022-11-06T15:14:41.830Z,73.83
2022-11-06T15:19:50.682Z,74.00
2022-11-06T15:24:58.201Z,74.59
2022-11-06T15:30:03.429Z,74.59
2022-11-06T15:35:12.327Z,74.58
2022-11-06T15:40:30.767Z,74.80
2022-11-06T15:45:32.948Z,75.14
2022-11-06T15:50:37.182Z,75.85
2022-11-06T15:55:45.203Z,75.91
2022-11-06T16:00:47.001Z,76.19
2022-11-06T16:05:49.350Z,76.80
2022-11-06T16:10:52.163Z,77.23
2022-11-06T16:16:01.179Z,77.52
2022-11-06T16:21:22.986Z,78.15
2022-11-06T16:26:36.954Z,78.19
2022-11-06T16:31:39.792Z,78.57
2022-11-06T16:36:52.350Z,78.94
2022-11-06T16:42:03.636Z,78.87
2022-11-06T16:47:05.393Z,78.91
2022-11-06T16:52:27.329Z,79.92
2022-11-06T16:57:50.180Z,79.71
2022-11-06T17:02:53.655Z,79.58
2022-11-06T17:08:26.468Z,80.14
2022-11-06T17:13:32.007Z,80.37
2022-11-06T17:18:37.156Z,80.36
2022-11-06T17:23:39.335Z,80.38
2022-11-06T17:28:41.098Z,80.62
2022-11-06T17:33:43.578Z,80.33
2022-11-06T17:38:46.425Z,80.54
2022-11-06T17:43:48.315Z,81.12
2022-11-06T17:48:50.033Z,81.80
2022-11-06T17:53:51.702Z,81.71
2022-11-06T17:58:53.412Z,81.41
2022-11-06T18:03:55.529Z,81.61
2022-11-06T18:08:58.197Z,81.80
2022-11-06T18:13:59.996Z,82.08
2022-11-06T18:19:02.023Z,82.13
2022-11-06T18:24:04.131Z,82.96
2022-11-06T18:29:07.554Z,83.51
2022-11-06T18:34:19.733Z,83.84
2022-11-06T18:39:22.132Z,83.47
2022-11-06T18:44:23.833Z,83.84
2022-11-06T18:49:25.559Z,84.08
2022-11-06T18:54:29.618Z,84.41
2022-11-06T18:59:31.717Z,84.72
2022-11-06T19:04:33.571Z,84.47
2022-11-06T19:09:35.403Z,84.35
2022-11-06T19:14:37.101Z,84.40
2022-11-06T19:19:38.936Z,83.88
2022-11-06T19:24:41.614Z,83.77
2022-11-06T19:29:43.280Z,83.72
2022-11-06T19:34:45.269Z,83.64
2022-11-06T19:39:46.957Z,83.77
2022-11-06T19:44:50.040Z,83.77
2022-11-06T19:49:51.748Z,83.94
2022-11-06T19:55:25.925Z,84.40
2022-11-06T20:00:16.357Z,84.46
2022-11-06T20:05:18.567Z,84.70
2022-11-06T20:10:20.413Z,84.95
2022-11-06T20:15:24.160Z,85.35
2022-11-06T20:20:27.356Z,85.88
2022-11-06T20:25:30.451Z,86.05
2022-11-06T20:30:32.083Z,86.12
2022-11-06T20:35:33.804Z,86.54
2022-11-06T20:40:35.986Z,86.71
2022-11-06T20:45:37.756Z,86.81
2022-11-06T20:50:39.488Z,86.84
2022-11-06T20:55:41.172Z,87.25
2022-11-06T21:00:42.858Z,87.07
2022-11-06T21:05:44.564Z,87.18
2022-11-06T21:11:05.697Z,88.04
2022-11-06T21:16:12.530Z,88.18
2022-11-06T21:21:18.277Z,88.27
2022-11-06T21:26:26.378Z,89.18
2022-11-06T21:31:31.054Z,89.67
2022-11-06T21:36:35.766Z,90.68
2022-11-06T21:41:38.594Z,91.36
2022-11-06T21:46:57.962Z,92.75
2022-11-06T21:52:19.657Z,92.53
2022-11-06T21:57:21.342Z,91.89
2022-11-06T22:02:23.130Z,91.24
2022-11-06T22:07:24.959Z,90.73
2022-11-06T22:12:27.311Z,90.47
2022-11-06T22:17:30.203Z,89.66
2022-11-06T22:22:32.350Z,89.73
2022-11-06T22:27:38.208Z,89.25
2022-11-06T22:32:42.969Z,89.40
2022-11-06T22:37:47.672Z,88.77
2022-11-06T22:42:50.644Z,88.77
2022-11-06T22:47:53.454Z,88.02
2022-11-06T22:52:59.005Z,88.17
2022-11-06T22:58:03.768Z,88.41
2022-11-06T23:03:09.085Z,88.10
2022-11-06T23:08:12.756Z,87.99
2022-11-06T23:13:16.688Z,87.97
2022-11-06T23:18:21.954Z,87.75
2022-11-06T23:23:29.541Z,88.00
2022-11-06T23:28:31.508Z,87.79
2022-11-06T23:33:33.387Z,87.96
2022-11-06T23:38:35.403Z,87.96
2022-11-06T23:43:37.076Z,88.30
2022-11-06T23:48:38.757Z,88.33
2022-11-06T23:53:40.571Z,88.22
2022-11-06T23:58:43.016Z,87.97
